createdAt,value
2019-03-10T03:07:40.280Z,47.9
2019-03-10T03:08:30.912Z,47.9
2019-03-10T03:09:21.052Z,47.9
2019-03-10T03:10:11.013Z,47.9
2019-03-10T03:11:00.837Z,47.9
2019-03-10T03:11:51.455Z,47.9
2019-03-10T03:12:40.983Z,47.9
2019-03-10T03:13:30.987Z,47.9
2019-03-10T03:14:21.585Z,47.9
2019-03-10T03:15:11.637Z,47.8
2019-03-10T03:16:01.177Z,47.8
2019-03-10T03:16:54.297Z,47.8
2019-03-10T03:17:41.049Z,47.8
2019-03-10T03:18:31.603Z,47.8
2019-03-10T03:19:21.248Z,47.8
2019-03-10T03:20:12.034Z,47.8
2019-03-10T03:21:01.915Z,47.8
2019-03-10T03:21:52.136Z,47.8
2019-03-10T03:22:41.662Z,47.8
2019-03-10T03:23:32.236Z,47.8
2019-03-10T03:24:22.311Z,47.8
2019-03-10T03:25:11.823Z,47.7
2019-03-10T03:26:01.719Z,47.7
2019-03-10T03:26:52.502Z,47.7
2019-03-10T03:27:42.057Z,47.7
2019-03-10T03:28:32.430Z,47.7
2019-03-10T03:29:22.124Z,47.7
2019-03-10T03:30:12.300Z,47.6
2019-03-10T03:31:02.625Z,47.7
2019-03-10T03:31:51.586Z,47.6
2019-03-10T03:32:42.592Z,47.6
2019-03-10T03:33:32.799Z,47.6
2019-03-10T03:34:22.390Z,47.6
2019-03-10T03:35:13.232Z,47.6
2019-03-10T03:36:02.996Z,47.6
2019-03-10T03:36:52.926Z,47.6
2019-03-10T03:37:42.970Z,47.6
2019-03-10T03:38:33.322Z,47.6
2019-03-10T03:39:22.931Z,47.6
2019-03-10T03:40:12.635Z,47.6
2019-03-10T03:41:02.974Z,47.5
2019-03-10T03:41:53.278Z,47.5
2019-03-10T03:42:43.701Z,47.5
2019-03-10T03:43:33.715Z,47.5
2019-03-10T03:44:23.205Z,47.5
2019-03-10T03:45:13.606Z,47.4
2019-03-10T03:46:03.409Z,47.4
2019-03-10T03:46:53.441Z,47.4
2019-03-10T03:47:43.124Z,47.4
2019-03-10T03:48:33.798Z,47.4
2019-03-10T03:49:23.871Z,47.4
2019-03-10T03:50:13.111Z,47.4
2019-03-10T03:51:03.485Z,47.4
2019-03-10T03:51:54.145Z,47.4
2019-03-10T03:52:43.252Z,47.4
2019-03-10T03:53:33.872Z,47.4
2019-03-10T03:54:23.728Z,47.4
2019-03-10T03:55:14.310Z,47.4
2019-03-10T03:56:03.772Z,47.3
2019-03-10T03:56:53.890Z,47.3
2019-03-10T03:57:44.412Z,47.3
2019-03-10T03:58:34.292Z,47.3
2019-03-10T03:59:23.633Z,47.3
2019-03-10T04:00:13.604Z,47.3
2019-03-10T04:01:04.499Z,47.3
2019-03-10T04:01:55.068Z,47.3
2019-03-10T04:02:44.337Z,47.3
2019-03-10T04:03:35.169Z,47.3
2019-03-10T04:04:24.429Z,47.3
2019-03-10T04:05:14.836Z,47.3
2019-03-10T04:06:04.876Z,47.3
2019-03-10T04:06:54.350Z,47.2
2019-03-10T04:07:44.948Z,47.2
2019-03-10T04:08:34.475Z,47.2
2019-03-10T04:09:25.081Z,47.2
2019-03-10T04:10:14.863Z,47.2
2019-03-10T04:11:04.682Z,47.2
2019-03-10T04:11:54.963Z,47.1
2019-03-10T04:12:44.420Z,47.1
2019-03-10T04:13:35.055Z,47.1
2019-03-10T04:14:25.984Z,47.1
2019-03-10T04:15:15.718Z,47.1
2019-03-10T04:16:05.299Z,47.1
2019-03-10T04:16:55.649Z,47.1
2019-03-10T04:17:45.952Z,47.1
2019-03-10T04:18:36.332Z,47.1
2019-03-10T04:19:25.433Z,47.1
2019-03-10T04:20:15.791Z,47.1
2019-03-10T04:21:05.939Z,47.1
2019-03-10T04:21:55.905Z,47
2019-03-10T04:22:46.533Z,47
2019-03-10T04:23:36.566Z,47
2019-03-10T04:24:25.558Z,47
2019-03-10T04:25:16.244Z,47
2019-03-10T04:26:06.320Z,46.9
2019-03-10T04:26:56.594Z,47
2019-03-10T04:27:46.331Z,46.9
2019-03-10T04:28:37.063Z,46.9
2019-03-10T04:29:26.783Z,46.9
2019-03-10T04:30:16.553Z,46.9
2019-03-10T04:31:06.889Z,46.9
2019-03-10T04:31:57.252Z,46.9
2019-03-10T04:32:47.263Z,46.9
2019-03-10T04:33:37.377Z,46.9
2019-03-10T04:34:26.845Z,46.9
2019-03-10T04:35:16.859Z,46.9
2019-03-10T04:36:07.183Z,46.9
2019-03-10T04:36:57.548Z,46.9
2019-03-10T04:37:47.370Z,46.9
2019-03-10T04:38:37.353Z,46.8
2019-03-10T04:39:26.880Z,46.8
2019-03-10T04:40:17.252Z,46.8
2019-03-10T04:41:07.839Z,46.8
2019-03-10T04:41:57.360Z,46.8
2019-03-10T04:42:47.104Z,46.8
2019-03-10T04:43:37.995Z,46.8
2019-03-10T04:44:27.792Z,46.8
2019-03-10T04:45:18.126Z,46.8
2019-03-10T04:46:07.687Z,46.8
2019-03-10T04:46:58.248Z,46.8
2019-03-10T04:47:48.029Z,46.7
2019-03-10T04:48:38.381Z,46.8
2019-03-10T04:49:28.427Z,46.7
2019-03-10T04:50:20.227Z,46.6
2019-03-10T04:51:08.275Z,46.6
2019-03-10T04:51:57.490Z,46.5
2019-03-10T04:52:48.114Z,46.4
2019-03-10T04:53:38.757Z,46.4
2019-03-10T04:54:28.543Z,46.3
2019-03-10T04:55:18.286Z,46.3
2019-03-10T04:56:08.373Z,46.3
2019-03-10T04:57:01.167Z,46.3
2019-03-10T04:57:48.751Z,46.3
2019-03-10T04:58:38.572Z,46.3
2019-03-10T04:59:28.606Z,46.3
2019-03-10T05:00:18.991Z,46.3
2019-03-10T05:01:09.038Z,46.2
2019-03-10T05:01:59.063Z,46.2
2019-03-10T05:02:49.149Z,46.2
2019-03-10T05:03:38.901Z,46.2
2019-03-10T05:04:31.485Z,46.2
2019-03-10T05:05:18.742Z,46.2
2019-03-10T05:06:09.721Z,46.2
2019-03-10T05:06:59.426Z,46.1
2019-03-10T05:07:49.478Z,46.1
2019-03-10T05:08:39.522Z,46.1
2019-03-10T05:09:29.595Z,46.1
2019-03-10T05:10:19.423Z,46.1
2019-03-10T05:11:09.518Z,46.1
2019-03-10T05:11:59.789Z,46.1
2019-03-10T05:12:49.854Z,46.1
2019-03-10T05:13:40.188Z,46.1
2019-03-10T05:14:30.225Z,46.1
2019-03-10T05:15:20.057Z,46.1
2019-03-10T05:16:09.867Z,46.1
2019-03-10T05:17:00.125Z,46.1
2019-03-10T05:17:49.637Z,46.1
2019-03-10T05:18:39.712Z,46
2019-03-10T05:19:29.525Z,46
2019-03-10T05:20:20.650Z,46
2019-03-10T05:21:10.543Z,46
2019-03-10T05:22:00.217Z,46
2019-03-10T05:22:50.660Z,46
2019-03-10T05:23:40.667Z,45.9
2019-03-10T05:24:30.178Z,45.9
2019-03-10T05:25:20.985Z,45.9
2019-03-10T05:26:10.334Z,45.9
2019-03-10T05:27:00.875Z,45.9
2019-03-10T05:27:50.379Z,45.9
2019-03-10T05:28:41.259Z,45.9
2019-03-10T05:29:31.327Z,45.9
2019-03-10T05:30:21.379Z,45.9
2019-03-10T05:31:11.234Z,45.9
2019-03-10T05:32:01.499Z,45.9
2019-03-10T05:32:51.349Z,45.9
2019-03-10T05:33:41.127Z,45.9
2019-03-10T05:34:30.841Z,45.8
2019-03-10T05:35:21.206Z,45.8
2019-03-10T05:36:11.262Z,45.8
2019-03-10T05:37:01.309Z,45.8
2019-03-10T05:37:51.654Z,45.8
2019-03-10T05:38:41.719Z,45.8
2019-03-10T05:39:31.479Z,45.8
2019-03-10T05:40:21.544Z,45.8
2019-03-10T05:41:10.495Z,45.8
2019-03-10T05:42:01.756Z,45.8
2019-03-10T05:42:52.279Z,45.8
2019-03-10T05:43:42.358Z,45.8
2019-03-10T05:44:32.136Z,45.8
2019-03-10T05:45:21.627Z,45.7
2019-03-10T05:46:12.286Z,45.7
2019-03-10T05:47:02.026Z,45.7
2019-03-10T05:47:52.663Z,45.6
2019-03-10T05:48:42.819Z,45.6
2019-03-10T05:49:32.215Z,45.6
2019-03-10T05:50:22.541Z,45.6
2019-03-10T05:51:12.333Z,45.6
2019-03-10T05:52:02.418Z,45.6
2019-03-10T05:52:53.065Z,45.6
2019-03-10T05:53:42.223Z,45.6
2019-03-10T05:54:32.867Z,45.6
2019-03-10T05:55:23.190Z,45.5
2019-03-10T05:56:12.710Z,45.5
2019-03-10T05:57:03.037Z,45.5
2019-03-10T05:57:52.837Z,45.5
2019-03-10T05:58:43.232Z,45.5
2019-03-10T05:59:32.695Z,45.4
2019-03-10T06:00:23.008Z,45.4
2019-03-10T06:01:13.353Z,45.4
2019-03-10T06:02:03.693Z,45.4
2019-03-10T06:02:52.613Z,45.4
2019-03-10T06:03:43.507Z,45.4
2019-03-10T06:05:40.436Z,45.4
2019-03-10T06:06:30.450Z,45.4
2019-03-10T06:07:20.787Z,45.4
2019-03-10T06:08:11.099Z,45.4
2019-03-10T06:09:00.399Z,45.4
2019-03-10T06:09:51.245Z,45.4
2019-03-10T06:10:40.743Z,45.4
2019-03-10T06:11:31.359Z,45.3
2019-03-10T06:12:21.460Z,45.3
2019-03-10T06:13:10.639Z,45.3
2019-03-10T06:14:00.979Z,45.3
2019-03-10T06:14:51.359Z,45.3
2019-03-10T06:15:41.369Z,45.3
2019-03-10T06:16:31.704Z,45.3
2019-03-10T06:17:22.983Z,45.3
2019-03-10T06:18:17.313Z,45.3
2019-03-10T06:19:01.899Z,45.3
2019-03-10T06:19:51.706Z,45.3
2019-03-10T06:20:42.014Z,45.3
2019-03-10T06:21:31.827Z,45.3
2019-03-10T06:22:21.572Z,45.3
2019-03-10T06:23:11.656Z,45.2
2019-03-10T06:24:01.698Z,45.2
2019-03-10T06:24:51.776Z,45.2
2019-03-10T06:25:41.608Z,45.2
2019-03-10T06:26:32.444Z,45.2
2019-03-10T06:27:22.493Z,45.2
2019-03-10T06:28:11.737Z,45.1
2019-03-10T06:29:02.375Z,45.1
2019-03-10T06:29:52.402Z,45.1
2019-03-10T06:30:42.189Z,45.1
2019-03-10T06:31:32.587Z,45.1
2019-03-10T06:32:22.590Z,45.1
2019-03-10T06:33:12.086Z,45.1
2019-03-10T06:34:02.763Z,45.1
2019-03-10T06:34:52.486Z,45.1
2019-03-10T06:35:42.536Z,45.1
2019-03-10T06:36:32.325Z,45.1
2019-03-10T06:37:22.935Z,45.1
2019-03-10T06:38:13.001Z,45.1
2019-03-10T06:39:02.868Z,45.1
2019-03-10T06:39:52.571Z,45
2019-03-10T06:40:43.205Z,45
2019-03-10T06:41:32.493Z,44.9
2019-03-10T06:42:22.828Z,44.9
2019-03-10T06:43:13.140Z,44.9
2019-03-10T06:44:03.693Z,44.8
2019-03-10T06:44:53.525Z,44.8
2019-03-10T06:45:43.264Z,44.7
2019-03-10T06:46:33.325Z,44.8
2019-03-10T06:47:23.653Z,44.7
2019-03-10T06:48:13.153Z,44.6
2019-03-10T06:49:03.772Z,44.6
2019-03-10T06:49:53.822Z,44.6
2019-03-10T06:50:43.655Z,44.6
2019-03-10T06:51:33.687Z,44.6
2019-03-10T06:52:24.330Z,44.6
2019-03-10T06:53:14.414Z,44.6
2019-03-10T06:54:04.422Z,44.6
2019-03-10T06:54:54.042Z,44.6
2019-03-10T06:55:44.270Z,44.6
2019-03-10T06:56:34.324Z,44.6
2019-03-10T06:57:24.170Z,44.6
2019-03-10T06:58:13.932Z,44.5
2019-03-10T06:59:04.512Z,44.5
2019-03-10T06:59:54.947Z,44.5
2019-03-10T07:00:44.942Z,44.5
2019-03-10T07:01:34.707Z,44.5
2019-03-10T07:02:25.012Z,44.5
2019-03-10T07:03:14.806Z,44.5
2019-03-10T07:05:55.267Z,44.4
2019-03-10T07:06:30.726Z,44.4
2019-03-10T07:07:20.742Z,44.4
2019-03-10T07:08:10.277Z,44.4
2019-03-10T07:09:00.861Z,44.4
2019-03-10T07:09:51.192Z,44.4
2019-03-10T07:10:40.985Z,44.4
2019-03-10T07:11:31.364Z,44.4
2019-03-10T07:12:21.376Z,44.4
2019-03-10T07:13:11.449Z,44.4
2019-03-10T07:14:00.943Z,44.4
2019-03-10T07:14:51.566Z,44.4
2019-03-10T07:15:40.509Z,44.3
2019-03-10T07:16:30.853Z,44.3
2019-03-10T07:17:21.188Z,44.3
2019-03-10T07:18:10.413Z,44.3
2019-03-10T07:19:01.626Z,44.3
2019-03-10T07:19:51.348Z,44.3
2019-03-10T07:20:41.418Z,44.3
2019-03-10T07:21:30.619Z,44.3
2019-03-10T07:22:21.823Z,44.3
2019-03-10T07:23:12.199Z,44.3
2019-03-10T07:24:01.670Z,44.3
2019-03-10T07:24:52.006Z,44.2
2019-03-10T07:25:41.499Z,44.1
2019-03-10T07:26:31.878Z,44.1
2019-03-10T07:27:22.170Z,44
2019-03-10T07:28:11.956Z,43.9
2019-03-10T07:29:01.737Z,43.8
2019-03-10T07:29:52.065Z,43.7
2019-03-10T07:30:42.125Z,43.7
2019-03-10T07:31:32.467Z,43.6
2019-03-10T07:32:22.333Z,43.5
2019-03-10T07:33:12.600Z,43.4
2019-03-10T07:34:02.377Z,43.4
2019-03-10T07:34:52.697Z,43.3
2019-03-10T07:35:42.786Z,43.3
2019-03-10T07:36:32.826Z,43.3
2019-03-10T07:37:22.892Z,43.3
2019-03-10T07:38:12.945Z,43.2
2019-03-10T07:39:02.729Z,43.3
2019-03-10T07:39:52.539Z,43.3
2019-03-10T07:40:42.310Z,43.2
2019-03-10T07:41:33.209Z,43.2
2019-03-10T07:42:23.526Z,43.2
2019-03-10T07:43:13.042Z,43.2
2019-03-10T07:44:03.681Z,43.1
2019-03-10T07:44:53.437Z,43.1
2019-03-10T07:45:43.474Z,43.1
2019-03-10T07:46:33.839Z,43.1
2019-03-10T07:47:23.617Z,43.1
2019-03-10T07:48:13.401Z,43.1
2019-03-10T07:49:03.759Z,43.1
2019-03-10T07:49:53.524Z,43.1
2019-03-10T07:50:43.026Z,43.1
2019-03-10T07:51:34.184Z,43.1
2019-03-10T07:52:24.148Z,43.1
2019-03-10T07:53:14.309Z,43.1
2019-03-10T07:54:03.826Z,43
2019-03-10T07:54:54.148Z,43.1
2019-03-10T07:55:43.979Z,43
2019-03-10T07:56:34.029Z,43
2019-03-10T07:57:23.861Z,43
2019-03-10T07:58:13.571Z,42.9
2019-03-10T07:59:04.220Z,42.9
2019-03-10T07:59:54.255Z,42.9
2019-03-10T08:00:44.911Z,42.9
2019-03-10T08:01:34.660Z,42.9
2019-03-10T08:02:24.440Z,42.9
2019-03-10T08:03:14.787Z,42.9
2019-03-10T08:04:04.903Z,42.9
2019-03-10T08:04:54.406Z,42.9
2019-03-10T08:05:44.688Z,42.9
2019-03-10T08:06:34.463Z,42.8
2019-03-10T08:07:24.858Z,42.8
2019-03-10T08:08:14.135Z,42.8
2019-03-10T08:09:05.205Z,42.8
2019-03-10T08:09:55.262Z,42.8
2019-03-10T08:10:44.744Z,42.8
2019-03-10T08:11:34.538Z,42.7
2019-03-10T08:12:25.408Z,42.7
2019-03-10T08:13:15.208Z,42.7
2019-03-10T08:14:04.776Z,42.7
2019-03-10T08:14:55.888Z,42.7
2019-03-10T08:15:45.667Z,42.7
2019-03-10T08:16:35.174Z,42.6
2019-03-10T08:17:28.213Z,42.6
2019-03-10T08:18:15.292Z,42.6
2019-03-10T08:19:05.387Z,42.6
2019-03-10T08:19:56.016Z,42.6
2019-03-10T08:20:46.307Z,42.6
2019-03-10T08:21:36.093Z,42.6
2019-03-10T08:22:25.877Z,42.6
2019-03-10T08:23:16.243Z,42.6
2019-03-10T08:24:06.545Z,42.6
2019-03-10T08:24:56.054Z,42.5
2019-03-10T08:25:45.847Z,42.5
2019-03-10T08:26:36.720Z,42.5
2019-03-10T08:27:26.808Z,42.5
2019-03-10T08:28:16.617Z,42.5
2019-03-10T08:29:06.912Z,42.5
2019-03-10T08:29:56.410Z,42.4
2019-03-10T08:30:46.516Z,42.4
2019-03-10T08:31:36.869Z,42.4
2019-03-10T08:32:26.072Z,42.4
2019-03-10T08:33:16.417Z,42.4
2019-03-10T08:34:06.524Z,42.4
2019-03-10T08:34:57.341Z,42.4
2019-03-10T08:35:46.887Z,42.4
2019-03-10T08:36:37.189Z,42.4
2019-03-10T08:37:27.515Z,42.4
2019-03-10T08:38:17.319Z,42.4
2019-03-10T08:39:06.560Z,42.4
2019-03-10T08:39:57.463Z,42.3
2019-03-10T08:40:47.491Z,42.3
2019-03-10T08:41:37.831Z,42.3
2019-03-10T08:42:27.381Z,42.3
2019-03-10T08:43:17.706Z,42.3
2019-03-10T08:44:07.712Z,42.2
2019-03-10T08:44:57.534Z,42.1
2019-03-10T08:45:48.167Z,42.1
2019-03-10T08:46:37.893Z,41.9
2019-03-10T08:47:27.154Z,41.9
2019-03-10T08:48:18.293Z,41.8
2019-03-10T08:49:08.100Z,41.8
2019-03-10T08:49:58.165Z,41.7
2019-03-10T08:50:48.213Z,41.6
2019-03-10T08:51:38.278Z,41.6
2019-03-10T08:52:28.588Z,41.6
2019-03-10T08:53:18.106Z,41.5
2019-03-10T08:54:08.175Z,41.5
2019-03-10T08:54:58.785Z,41.4
2019-03-10T08:55:47.805Z,41.4
2019-03-10T08:56:38.403Z,41.4
2019-03-10T08:57:29.035Z,41.4
2019-03-10T08:58:18.743Z,41.4
2019-03-10T08:59:09.134Z,41.4
2019-03-10T08:59:58.305Z,41.4
2019-03-10T09:00:48.700Z,41.5
2019-03-10T09:01:38.797Z,41.6
2019-03-10T09:02:28.769Z,41.6
2019-03-10T09:03:18.637Z,41.7
2019-03-10T09:04:09.448Z,41.8
2019-03-10T09:04:59.239Z,41.8
2019-03-10T09:05:49.278Z,41.9
2019-03-10T09:06:39.608Z,42
2019-03-10T09:07:28.917Z,42.1
2019-03-10T09:08:19.459Z,42.1
2019-03-10T09:09:09.819Z,42.2
2019-03-10T09:09:59.885Z,42.3
2019-03-10T09:10:49.014Z,42.4
2019-03-10T09:11:39.504Z,42.4
2019-03-10T09:12:29.492Z,42.5
2019-03-10T09:13:19.564Z,42.6
2019-03-10T09:14:09.628Z,42.7
2019-03-10T09:15:00.005Z,42.8
2019-03-10T09:15:48.917Z,42.8
2019-03-10T09:16:40.351Z,42.9
2019-03-10T09:17:30.166Z,43
2019-03-10T09:18:19.931Z,43.1
2019-03-10T09:19:09.983Z,43.1
2019-03-10T09:19:59.800Z,43.3
2019-03-10T09:20:50.162Z,43.3
2019-03-10T09:21:40.509Z,43.4
2019-03-10T09:22:30.239Z,43.4
2019-03-10T09:23:20.841Z,43.6
2019-03-10T09:24:10.912Z,43.6
2019-03-10T09:25:00.971Z,43.7
2019-03-10T09:25:51.063Z,43.8
2019-03-10T09:26:40.246Z,43.9
2019-03-10T09:27:32.023Z,44
2019-03-10T09:28:20.666Z,44.1
2019-03-10T09:29:10.792Z,44.2
2019-03-10T09:30:01.192Z,44.3
2019-03-10T09:30:50.841Z,44.4
2019-03-10T09:31:41.162Z,44.4
2019-03-10T09:32:31.266Z,44.6
2019-03-10T09:33:21.612Z,44.7
2019-03-10T09:34:10.610Z,44.7
2019-03-10T09:35:01.921Z,44.8
2019-03-10T09:35:51.456Z,44.9
2019-03-10T09:36:41.240Z,45
2019-03-10T09:37:31.373Z,45.1
2019-03-10T09:38:21.928Z,45.2
2019-03-10T09:39:11.438Z,45.3
2019-03-10T09:40:02.291Z,45.4
2019-03-10T09:40:51.851Z,45.5
2019-03-10T09:41:41.917Z,45.6
2019-03-10T09:42:31.292Z,45.7
2019-03-10T09:43:22.323Z,45.8
2019-03-10T09:44:12.087Z,45.8
2019-03-10T09:45:02.308Z,45.9
2019-03-10T09:45:51.933Z,46
2019-03-10T09:46:42.051Z,46.1
2019-03-10T09:47:31.794Z,46.2
2019-03-10T09:48:22.397Z,46.3
2019-03-10T09:49:12.714Z,46.4
2019-03-10T09:50:02.665Z,46.5
2019-03-10T09:50:52.289Z,46.6
2019-03-10T09:51:42.064Z,46.7
2019-03-10T09:52:32.387Z,46.8
2019-03-10T09:53:22.758Z,46.9
2019-03-10T09:54:12.806Z,46.9
2019-03-10T09:55:05.085Z,47.1
2019-03-10T09:55:52.934Z,47.1
2019-03-10T09:56:42.691Z,47.3
2019-03-10T09:57:32.767Z,47.3
2019-03-10T09:58:23.111Z,47.4
2019-03-10T09:59:13.439Z,47.5
2019-03-10T10:00:03.729Z,47.6
2019-03-10T10:00:53.543Z,47.6
2019-03-10T10:01:42.795Z,47.8
2019-03-10T10:02:33.129Z,47.8
2019-03-10T10:03:23.730Z,47.9
2019-03-10T10:04:13.361Z,48
2019-03-10T10:06:40.243Z,48.2
2019-03-10T10:07:29.459Z,48.3
2019-03-10T10:08:20.734Z,48.4
2019-03-10T10:09:10.391Z,48.5
2019-03-10T10:10:00.515Z,48.6
2019-03-10T10:10:50.778Z,48.7
2019-03-10T10:11:40.847Z,48.8
2019-03-10T10:12:30.623Z,48.9
2019-03-10T10:13:21.261Z,48.9
2019-03-10T10:14:11.293Z,49
2019-03-10T10:15:00.840Z,49.1
2019-03-10T10:15:51.408Z,49.3
2019-03-10T10:16:40.653Z,49.3
2019-03-10T10:17:31.259Z,49.4
2019-03-10T10:18:20.750Z,49.4
2019-03-10T10:19:11.728Z,49.6
2019-03-10T10:20:01.526Z,49.7
2019-03-10T10:20:51.773Z,49.8
2019-03-10T10:21:41.274Z,49.8
2019-03-10T10:22:31.353Z,49.9
2019-03-10T10:23:21.141Z,50
2019-03-10T10:24:11.476Z,50.1
2019-03-10T10:25:01.839Z,50.2
2019-03-10T10:25:51.115Z,50.3
2019-03-10T10:26:41.479Z,50.3
2019-03-10T10:27:31.523Z,50.4
2019-03-10T10:28:21.310Z,50.5
2019-03-10T10:29:11.642Z,50.6
2019-03-10T10:30:01.690Z,50.7
2019-03-10T10:30:51.480Z,50.8
2019-03-10T10:31:41.582Z,50.9
2019-03-10T10:32:31.867Z,50.9
2019-03-10T10:33:21.988Z,51.1
2019-03-10T10:34:12.470Z,51.2
2019-03-10T10:35:02.492Z,51.3
2019-03-10T10:35:52.317Z,51.3
2019-03-10T10:36:42.127Z,51.4
2019-03-10T10:37:32.422Z,51.5
2019-03-10T10:38:22.640Z,51.6
2019-03-10T10:39:12.832Z,51.7
2019-03-10T10:40:03.148Z,51.8
2019-03-10T10:40:52.669Z,51.9
2019-03-10T10:41:42.997Z,52
2019-03-10T10:42:33.359Z,52.1
2019-03-10T10:43:22.934Z,52.2
2019-03-10T10:44:12.932Z,52.3
2019-03-10T10:45:03.097Z,52.3
2019-03-10T10:45:55.889Z,52.4
2019-03-10T10:46:43.378Z,52.5
2019-03-10T10:47:33.191Z,52.6
2019-03-10T10:48:23.204Z,52.7
2019-03-10T10:49:13.625Z,52.8
2019-03-10T10:50:04.026Z,52.9
2019-03-10T10:50:53.479Z,52.9
2019-03-10T10:51:44.142Z,53
2019-03-10T10:52:33.647Z,53.1
2019-03-10T10:53:25.330Z,53.2
2019-03-10T10:54:13.760Z,53.3
2019-03-10T10:55:04.019Z,53.4
2019-03-10T10:55:53.843Z,53.4
2019-03-10T10:56:44.599Z,53.5
2019-03-10T10:57:34.039Z,53.6
2019-03-10T10:58:24.506Z,53.7
2019-03-10T10:59:14.304Z,53.8
2019-03-10T11:00:04.082Z,53.9
2019-03-10T11:00:54.692Z,54
2019-03-10T11:01:44.208Z,54.1
2019-03-10T11:02:34.795Z,54.1
2019-03-10T11:03:24.638Z,54.2
2019-03-10T11:04:14.371Z,54.3
2019-03-10T11:05:04.191Z,54.4
2019-03-10T11:05:54.781Z,54.4
2019-03-10T11:06:44.840Z,54.6
2019-03-10T11:07:34.868Z,54.6
2019-03-10T11:08:25.020Z,54.7
2019-03-10T11:09:14.755Z,54.8
2019-03-10T11:10:05.378Z,54.8
2019-03-10T11:10:54.900Z,54.9
2019-03-10T11:11:45.558Z,55
2019-03-10T11:12:35.242Z,55.1
2019-03-10T11:13:25.110Z,55.1
2019-03-10T11:14:14.545Z,55.2
2019-03-10T11:15:05.737Z,55.3
2019-03-10T11:15:56.666Z,55.3
2019-03-10T11:16:47.910Z,55.3
2019-03-10T11:17:35.062Z,55.4
2019-03-10T11:18:25.118Z,55.4
2019-03-10T11:19:15.472Z,55.4
2019-03-10T11:20:05.550Z,55.4
2019-03-10T11:20:58.715Z,55.4
2019-03-10T11:21:45.937Z,55.4
2019-03-10T11:22:35.881Z,55.4
2019-03-10T11:23:26.035Z,55.4
2019-03-10T11:24:16.099Z,55.4
2019-03-10T11:25:05.892Z,55.4
2019-03-10T11:25:55.730Z,55.4
2019-03-10T11:26:45.735Z,55.4
2019-03-10T11:27:35.874Z,55.4
2019-03-10T11:28:25.917Z,55.4
2019-03-10T11:29:16.267Z,55.5
2019-03-10T11:30:05.314Z,55.6
2019-03-10T11:30:55.577Z,55.6
2019-03-10T11:31:46.189Z,55.6
2019-03-10T11:32:36.512Z,55.7
2019-03-10T11:33:29.142Z,55.7
2019-03-10T11:34:16.079Z,55.8
2019-03-10T11:35:06.375Z,55.8
2019-03-10T11:35:56.912Z,55.8
2019-03-10T11:36:46.259Z,55.9
2019-03-10T11:37:36.626Z,55.9
2019-03-10T11:38:27.139Z,56
2019-03-10T11:39:16.736Z,56.1
2019-03-10T11:40:06.922Z,56.1
2019-03-10T11:40:57.311Z,56.1
2019-03-10T11:41:50.020Z,56.2
2019-03-10T11:42:37.729Z,56.3
2019-03-10T11:43:27.594Z,56.4
2019-03-10T11:44:17.865Z,56.4
2019-03-10T11:45:07.619Z,56.4
2019-03-10T11:45:56.950Z,56.5
2019-03-10T11:46:47.767Z,56.6
2019-03-10T11:47:37.296Z,56.6
2019-03-10T11:48:28.184Z,56.6
2019-03-10T11:49:17.950Z,56.6
2019-03-10T11:50:08.093Z,56.6
2019-03-10T11:50:58.338Z,56.6
2019-03-10T11:51:47.942Z,56.6
2019-03-10T11:52:37.658Z,56.6
2019-03-10T11:53:29.264Z,56.6
2019-03-10T11:54:18.336Z,56.6
2019-03-10T11:55:08.819Z,56.6
2019-03-10T11:55:58.436Z,56.6
2019-03-10T11:56:48.796Z,56.6
2019-03-10T11:57:38.021Z,56.6
2019-03-10T11:58:31.320Z,56.6
2019-03-10T11:59:17.906Z,56.7
2019-03-10T12:00:08.503Z,56.7
2019-03-10T12:00:58.595Z,56.8
2019-03-10T12:01:48.854Z,56.8
2019-03-10T12:02:38.935Z,56.8
2019-03-10T12:03:28.414Z,56.9
2019-03-10T12:04:18.786Z,56.9
2019-03-10T12:06:40.415Z,57
2019-03-10T12:07:30.202Z,57
2019-03-10T12:08:20.574Z,57.1
2019-03-10T12:09:10.325Z,57.1
2019-03-10T12:10:00.953Z,57.1
2019-03-10T12:10:50.702Z,57.1
2019-03-10T12:11:40.549Z,57.1
2019-03-10T12:12:30.824Z,57.2
2019-03-10T12:13:20.894Z,57.3
2019-03-10T12:14:10.664Z,57.3
2019-03-10T12:15:01.009Z,57.3
2019-03-10T12:15:51.080Z,57.3
2019-03-10T12:16:41.181Z,57.3
2019-03-10T12:17:31.186Z,57.4
2019-03-10T12:18:21.324Z,57.4
2019-03-10T12:19:11.046Z,57.4
2019-03-10T12:20:00.972Z,57.5
2019-03-10T12:20:51.739Z,57.5
2019-03-10T12:21:41.499Z,57.6
2019-03-10T12:22:31.551Z,57.6
2019-03-10T12:23:21.616Z,57.6
2019-03-10T12:24:11.502Z,57.7
2019-03-10T12:25:52.084Z,57.8
2019-03-10T12:26:42.163Z,57.8
2019-03-10T12:27:31.985Z,57.9
2019-03-10T12:28:21.403Z,57.9
2019-03-10T12:29:11.476Z,57.9
2019-03-10T12:30:02.278Z,57.9
2019-03-10T12:30:51.878Z,58
2019-03-10T12:31:42.526Z,58.1
2019-03-10T12:32:31.713Z,58.1
2019-03-10T12:33:22.214Z,58.1
2019-03-10T12:34:12.429Z,58.1
2019-03-10T12:35:02.278Z,58.2
2019-03-10T12:35:52.521Z,58.2
2019-03-10T12:36:43.141Z,58.3
2019-03-10T12:37:32.906Z,58.3
2019-03-10T12:38:22.990Z,58.3
2019-03-10T12:39:12.188Z,58.4
2019-03-10T12:40:03.235Z,58.4
2019-03-10T12:40:52.600Z,58.4
2019-03-10T12:41:42.933Z,58.4
2019-03-10T12:42:33.268Z,58.5
2019-03-10T12:45:03.225Z,58.6
2019-03-10T12:45:53.234Z,58.6
2019-03-10T12:46:43.315Z,58.7
2019-03-10T12:47:32.336Z,58.7
2019-03-10T12:48:23.680Z,58.8
2019-03-10T12:49:13.794Z,58.8
2019-03-10T12:50:03.342Z,58.8
2019-03-10T12:50:53.613Z,58.8
2019-03-10T12:51:43.102Z,58.8
2019-03-10T12:52:33.722Z,58.8
2019-03-10T12:53:23.789Z,58.8
2019-03-10T12:54:13.577Z,58.8
2019-03-10T12:55:04.279Z,58.8
2019-03-10T12:55:53.707Z,58.8
2019-03-10T12:56:44.739Z,58.8
2019-03-10T12:57:34.105Z,58.8
2019-03-10T12:58:24.426Z,58.8
2019-03-10T12:59:13.143Z,58.8
2019-03-10T13:00:03.785Z,58.8
2019-03-10T13:01:06.891Z,58.7
2019-03-10T13:01:44.692Z,58.8
2019-03-10T13:02:34.179Z,58.8
2019-03-10T13:03:24.531Z,58.7
2019-03-10T13:04:14.366Z,58.7
2019-03-10T13:05:04.417Z,58.8
2019-03-10T13:05:54.453Z,58.8
2019-03-10T13:06:44.749Z,58.7
2019-03-10T13:07:34.822Z,58.7
2019-03-10T13:08:23.924Z,58.7
2019-03-10T13:09:14.939Z,58.7
2019-03-10T13:10:04.736Z,58.7
2019-03-10T13:10:55.112Z,58.7
2019-03-10T13:11:45.153Z,58.7
2019-03-10T13:12:35.213Z,58.7
2019-03-10T13:13:24.715Z,58.7
2019-03-10T13:14:15.589Z,58.7
2019-03-10T13:15:05.060Z,58.6
2019-03-10T13:15:55.439Z,58.6
2019-03-10T13:16:44.980Z,58.6
2019-03-10T13:17:35.300Z,58.6
2019-03-10T13:18:24.863Z,58.6
2019-03-10T13:19:15.538Z,58.6
2019-03-10T13:20:05.793Z,58.6
2019-03-10T13:20:55.820Z,58.6
2019-03-10T13:21:46.463Z,58.6
2019-03-10T13:23:25.975Z,58.6
2019-03-10T13:24:15.758Z,58.6
2019-03-10T13:34:16.307Z,58.5
2019-03-10T13:35:59.505Z,58.5
2019-03-10T13:36:46.447Z,58.5
2019-03-10T13:37:36.740Z,58.5
2019-03-10T13:38:27.068Z,58.5
2019-03-10T13:39:16.862Z,58.5
2019-03-10T13:40:06.947Z,58.5
2019-03-10T13:40:57.537Z,58.5
2019-03-10T13:41:47.319Z,58.5
2019-03-10T13:42:36.539Z,58.5
2019-03-10T13:43:27.165Z,58.4
2019-03-10T13:44:17.485Z,58.4
2019-03-10T13:45:07.620Z,58.4
2019-03-10T13:45:57.357Z,58.4
2019-03-10T13:46:47.734Z,58.4
2019-03-10T13:47:37.756Z,58.4
2019-03-10T13:48:28.091Z,58.4
2019-03-10T13:49:17.378Z,58.4
2019-03-10T13:50:07.688Z,58.4
2019-03-10T13:50:58.306Z,58.4
2019-03-10T13:51:47.476Z,58.4
2019-03-10T13:52:37.864Z,58.4
2019-03-10T13:53:27.878Z,58.4
2019-03-10T13:54:18.514Z,58.4
2019-03-10T13:55:08.005Z,58.4
2019-03-10T13:55:58.084Z,58.4
2019-03-10T13:56:48.421Z,58.4
2019-03-10T13:57:38.771Z,58.4
2019-03-10T13:58:28.241Z,58.3
2019-03-10T13:59:18.043Z,58.4
2019-03-10T14:00:08.936Z,58.3
2019-03-10T14:00:58.704Z,58.3
2019-03-10T14:01:47.938Z,58.3
2019-03-10T14:02:38.826Z,58.3
2019-03-10T14:03:28.048Z,58.3
2019-03-10T14:04:18.676Z,58.3
2019-03-10T14:05:08.760Z,58.3
2019-03-10T14:07:40.630Z,58.3
2019-03-10T14:08:30.650Z,58.3
2019-03-10T14:09:20.126Z,58.3
2019-03-10T14:10:13.234Z,58.3
2019-03-10T14:11:00.339Z,58.3
2019-03-10T14:11:50.303Z,58.3
2019-03-10T14:12:40.770Z,58.3
2019-03-10T14:13:30.722Z,58.3
2019-03-10T14:14:21.061Z,58.3
2019-03-10T14:15:10.079Z,58.3
2019-03-10T14:16:00.688Z,58.2
2019-03-10T14:16:50.717Z,58.2
2019-03-10T14:17:40.532Z,58.2
2019-03-10T14:18:31.085Z,58.2
2019-03-10T14:19:21.142Z,58.2
2019-03-10T14:20:11.475Z,58.2
2019-03-10T14:21:00.842Z,58.2
2019-03-10T14:21:51.349Z,58.2
2019-03-10T14:22:41.084Z,58.2
2019-03-10T14:23:31.177Z,58.1
2019-03-10T14:24:21.502Z,58.1
2019-03-10T14:25:11.867Z,58.1
2019-03-10T14:26:01.975Z,58.1
2019-03-10T14:26:51.696Z,58.1
2019-03-10T14:27:41.727Z,58.1
2019-03-10T14:28:31.522Z,58.1
2019-03-10T14:29:21.879Z,58.1
2019-03-10T14:30:11.930Z,58.1
2019-03-10T14:31:01.716Z,58.1
2019-03-10T14:31:52.067Z,58.1
2019-03-10T14:32:42.465Z,58.1
2019-03-10T14:33:32.206Z,58.1
2019-03-10T14:34:21.144Z,58.1
2019-03-10T14:35:11.991Z,58.1
2019-03-10T14:36:02.366Z,58.1